Time;durP1;ratioP1;P1;durP2;ratioP2;P2;SDS_P1;SDS_P2;PMS_P1;PMS_P2;Temp;Humidity;BMP_temperature;BMP_pressure;BME280_temperature;BME280_humidity;BME280_pressure;Samples;Min_cycle;Max_cycle;Signal;HPM_P1;HPM_P2
2023/09/29 00:00:47;;;;;;;16.07;4.77;;;;;;;16.20;100.00;101374.25;5116349;28;20269;-82
2023/09/29 00:03:15;;;;;;;10.30;4.43;;;;;;;16.16;100.00;101375.78;5116154;28;20032;-82
2023/09/29 00:05:43;;;;;;;11.90;4.07;;;;;;;16.13;100.00;101379.81;5116178;28;20047;-82
2023/09/29 00:08:09;;;;;;;9.77;4.28;;;;;;;16.11;100.00;101375.69;5116977;28;20036;-82
2023/09/29 00:10:39;;;;;;;13.00;4.35;;;;;;;16.10;100.00;101376.75;5117324;28;20110;-82
2023/09/29 00:13:04;;;;;;;12.82;4.05;;;;;;;16.11;100.00;101375.69;5116147;28;20042;-82
2023/09/29 00:15:32;;;;;;;11.03;4.03;;;;;;;16.11;100.00;101373.78;5116217;28;20039;-82
2023/09/29 00:17:57;;;;;;;13.13;4.35;;;;;;;16.10;100.00;101374.00;5099263;28;20024;-81
2023/09/29 00:20:23;;;;;;;12.73;4.40;;;;;;;16.11;100.00;101376.50;5081970;28;20081;-81
2023/09/29 00:22:50;;;;;;;10.57;4.40;;;;;;;16.14;100.00;101376.03;5098777;28;20442;-82
2023/09/29 00:25:15;;;;;;;11.02;4.38;;;;;;;16.16;100.00;101370.31;5115709;28;20410;-82
2023/09/29 00:27:41;;;;;;;12.47;4.57;;;;;;;16.21;100.00;101369.59;5098765;28;20028;-81
2023/09/29 00:30:11;;;;;;;12.70;4.05;;;;;;;16.24;100.00;101371.84;5098617;28;20378;-81
2023/09/29 00:32:42;;;;;;;9.83;4.40;;;;;;;16.29;100.00;101366.50;5114741;28;20046;-82
2023/09/29 00:35:17;;;;;;;11.65;4.13;;;;;;;16.30;100.00;101368.16;5115757;28;20028;-82
2023/09/29 00:37:44;;;;;;;12.43;4.50;;;;;;;16.33;100.00;101359.47;5115956;28;20382;-82
2023/09/29 00:40:12;;;;;;;14.85;4.60;;;;;;;16.34;100.00;101366.59;5115544;28;20525;-82
2023/09/29 00:42:41;;;;;;;11.77;4.25;;;;;;;16.35;100.00;101362.78;5115102;28;20032;-81
2023/09/29 00:45:08;;;;;;;12.13;4.70;;;;;;;16.36;100.00;101364.44;5082251;28;20027;-81
2023/09/29 00:47:37;;;;;;;7.15;3.95;;;;;;;16.39;100.00;101360.41;5115390;28;20054;-82
2023/09/29 00:50:09;;;;;;;14.50;4.50;;;;;;;16.40;100.00;101360.16;5114912;28;20491;-82
2023/09/29 00:52:38;;;;;;;11.40;3.90;;;;;;;16.42;100.00;101348.97;5116186;28;20475;-82
2023/09/29 00:55:15;;;;;;;16.23;4.50;;;;;;;16.44;100.00;101346.81;5116444;28;20038;-82
2023/09/29 00:57:42;;;;;;;10.97;3.87;;;;;;;16.44;100.00;101352.28;5115341;28;20027;-82
2023/09/29 01:00:52;;;;;;;9.27;3.90;;;;;;;16.45;100.00;101351.22;5114672;28;20417;-82
2023/09/29 01:03:06;;;;;;;11.43;3.83;;;;;;;16.44;100.00;101355.84;5110010;28;20040;-82
2023/09/29 01:05:38;;;;;;;11.95;3.92;;;;;;;16.44;100.00;101352.28;5114943;28;20488;-82
2023/09/29 01:08:08;;;;;;;9.13;4.07;;;;;;;16.42;100.00;101344.31;5116176;28;20035;-82
2023/09/29 01:10:37;;;;;;;10.10;3.90;;;;;;;16.42;100.00;101341.56;5114882;28;20053;-82
2023/09/29 01:13:06;;;;;;;13.90;3.72;;;;;;;16.42;100.00;101347.06;5114611;28;20036;-82
2023/09/29 01:15:36;;;;;;;9.45;4.00;;;;;;;16.42;100.00;101336.09;5116474;28;20119;-82
2023/09/29 01:18:02;;;;;;;7.03;3.53;;;;;;;16.42;100.00;101330.63;5115855;28;20024;-82
2023/09/29 01:20:28;;;;;;;11.55;3.63;;;;;;;16.42;100.00;101330.63;5116168;28;20038;-82
2023/09/29 01:22:58;;;;;;;9.47;3.80;;;;;;;16.42;100.00;101327.88;5114532;28;20032;-82
2023/09/29 01:25:24;;;;;;;15.30;3.47;;;;;;;16.44;100.00;101327.63;5115002;28;20535;-82
2023/09/29 01:27:50;;;;;;;6.85;3.58;;;;;;;16.44;100.00;101325.72;5114474;28;20063;-82
2023/09/29 01:30:18;;;;;;;9.47;3.50;;;;;;;16.45;100.00;101318.34;5115739;28;20055;-82
2023/09/29 01:32:46;;;;;;;9.67;3.23;;;;;;;16.45;100.00;101318.34;5115652;28;20360;-82
2023/09/29 01:35:11;;;;;;;11.18;3.60;;;;;;;16.45;100.00;101310.97;5097360;28;20415;-82
2023/09/29 01:37:38;;;;;;;6.20;3.10;;;;;;;16.45;100.00;101307.41;5097174;28;20501;-82
2023/09/29 01:40:06;;;;;;;11.60;3.50;;;;;;;16.46;100.00;101298.94;5114211;28;20118;-82
2023/09/29 01:42:32;;;;;;;8.38;3.08;;;;;;;16.49;100.00;101300.38;5115681;28;20019;-82
2023/09/29 01:44:57;;;;;;;6.33;3.30;;;;;;;16.48;100.00;101301.44;5113969;28;20043;-82
2023/09/29 01:47:23;;;;;;;5.67;3.17;;;;;;;16.49;100.00;101301.19;5081066;28;20476;-82
2023/09/29 01:49:48;;;;;;;13.60;3.53;;;;;;;16.52;100.00;101307.25;5113920;28;20479;-82
2023/09/29 01:52:14;;;;;;;10.00;2.80;;;;;;;16.54;100.00;101302.38;5114098;28;20036;-82
2023/09/29 01:54:39;;;;;;;9.57;2.90;;;;;;;16.53;100.00;101295.22;5096972;28;20046;-82
2023/09/29 01:57:05;;;;;;;5.77;2.67;;;;;;;16.56;100.00;101297.47;5113348;28;20039;-82
2023/09/29 01:59:31;;;;;;;7.93;2.90;;;;;;;16.55;100.00;101293.06;5114238;28;20032;-82
2023/09/29 02:01:56;;;;;;;6.32;2.67;;;;;;;16.56;100.00;101289.25;5115868;28;20023;-82
2023/09/29 02:04:22;;;;;;;7.93;2.60;;;;;;;16.58;100.00;101282.44;5114422;28;20032;-82
2023/09/29 02:06:50;;;;;;;6.73;2.80;;;;;;;16.57;100.00;101277.22;5114998;28;20031;-82
2023/09/29 02:09:16;;;;;;;6.60;2.65;;;;;;;16.57;100.00;101272.56;5097151;28;20132;-82
2023/09/29 02:11:44;;;;;;;6.50;2.88;;;;;;;16.58;100.00;101278.88;5097074;28;20032;-82
2023/09/29 02:14:09;;;;;;;6.95;2.88;;;;;;;16.57;100.00;101283.53;5114011;28;20122;-82
2023/09/29 02:16:35;;;;;;;5.33;2.47;;;;;;;16.56;100.00;101281.03;5113471;28;20070;-82
2023/09/29 02:19:02;;;;;;;6.55;2.60;;;;;;;16.57;100.00;101288.19;5114806;28;20016;-82
2023/09/29 02:21:31;;;;;;;6.25;2.72;;;;;;;16.58;100.00;101278.88;5113156;28;20376;-82
2023/09/29 02:24:00;;;;;;;6.37;2.60;;;;;;;16.59;100.00;101275.06;5096966;28;20031;-82
2023/09/29 02:26:29;;;;;;;6.70;2.75;;;;;;;16.58;100.00;101268.75;5096041;28;20042;-82
2023/09/29 02:28:55;;;;;;;5.85;2.58;;;;;;;16.58;100.00;101270.66;5113637;28;20027;-82
2023/09/29 02:31:21;;;;;;;9.77;2.60;;;;;;;16.58;100.00;101271.50;5096449;28;20498;-82
2023/09/29 02:33:47;;;;;;;7.60;2.60;;;;;;;16.58;100.00;101274.25;5113355;28;20059;-82
2023/09/29 02:36:12;;;;;;;5.80;2.27;;;;;;;16.58;100.00;101267.91;5079468;28;20318;-82
2023/09/29 02:38:38;;;;;;;8.47;2.47;;;;;;;16.59;100.00;101256.69;5096429;28;20498;-81
2023/09/29 02:41:04;;;;;;;8.33;3.00;;;;;;;16.60;100.00;101252.06;5096481;28;20524;-82
2023/09/29 02:43:32;;;;;;;6.10;2.42;;;;;;;16.61;100.00;101249.09;5112867;28;20485;-83
2023/09/29 02:45:58;;;;;;;5.40;2.40;;;;;;;16.62;100.00;101241.69;5096418;28;20023;-82
2023/09/29 02:48:23;;;;;;;6.07;2.53;;;;;;;16.63;100.00;101235.97;5096455;28;20035;-82
2023/09/29 02:50:49;;;;;;;6.23;2.30;;;;;;;16.63;100.00;101235.97;5113031;28;20456;-83
2023/09/29 02:53:15;;;;;;;8.48;2.60;;;;;;;16.64;100.00;101239.56;5113892;28;20039;-82
2023/09/29 02:55:41;;;;;;;4.18;2.45;;;;;;;16.67;100.00;101233.59;5095702;28;20471;-82
2023/09/29 02:58:07;;;;;;;9.57;2.87;;;;;;;16.66;100.00;101224.50;5114720;28;20511;-82
2023/09/29 03:00:32;;;;;;;6.88;2.25;;;;;;;16.70;100.00;101224.00;5113355;28;20050;-82
2023/09/29 03:02:58;;;;;;;8.80;2.37;;;;;;;16.70;100.00;101216.66;5096027;28;20456;-82
2023/09/29 03:05:25;;;;;;;7.30;2.38;;;;;;;16.71;100.00;101218.31;5112998;28;20036;-82
2023/09/29 03:07:51;;;;;;;5.25;2.20;;;;;;;16.73;100.00;101223.53;5114048;28;20028;-82
2023/09/29 03:10:17;;;;;;;6.13;2.40;;;;;;;16.77;100.00;101222.81;5079116;28;20023;-82
2023/09/29 03:12:45;;;;;;;3.97;2.00;;;;;;;16.78;100.00;101221.69;5113071;28;20383;-82
2023/09/29 03:15:15;;;;;;;5.25;2.65;;;;;;;16.78;100.00;101216.22;5113667;28;20039;-82
2023/09/29 03:17:41;;;;;;;5.90;2.42;;;;;;;16.79;100.00;101226.09;5113282;28;20053;-82
2023/09/29 03:20:14;;;;;;;4.77;2.50;;;;;;;16.80;100.00;101225.03;5113998;28;20118;-82
2023/09/29 03:22:44;;;;;;;6.78;2.65;;;;;;;16.79;100.00;101219.81;5112865;28;20031;-82
2023/09/29 03:25:10;;;;;;;6.90;2.50;;;;;;;16.77;100.00;101214.56;5114024;28;20035;-82
2023/09/29 03:27:37;;;;;;;6.43;2.30;;;;;;;16.76;100.00;101212.09;5112517;28;20032;-82
2023/09/29 03:30:04;;;;;;;4.72;2.53;;;;;;;16.75;100.00;101202.19;5113619;28;20031;-82
2023/09/29 03:32:30;;;;;;;5.80;2.10;;;;;;;16.75;100.00;101199.47;5113869;28;20028;-82
2023/09/29 03:34:56;;;;;;;6.40;2.38;;;;;;;16.75;100.00;101191.25;5112295;28;20024;-82
2023/09/29 03:37:22;;;;;;;6.00;2.53;;;;;;;16.76;100.00;101192.91;5112877;28;20035;-82
2023/09/29 03:39:48;;;;;;;5.28;2.55;;;;;;;16.77;100.00;101191.81;5112825;28;20066;-82
2023/09/29 03:42:19;;;;;;;4.50;2.50;;;;;;;16.77;100.00;101180.84;5112280;28;20066;-82
2023/09/29 03:44:45;;;;;;;5.88;2.40;;;;;;;16.78;100.00;101168.81;5095762;28;20067;-82
2023/09/29 03:47:13;;;;;;;6.00;2.37;;;;;;;16.77;100.00;101167.16;5112645;28;20063;-82
2023/09/29 03:49:38;;;;;;;6.15;2.20;;;;;;;16.75;100.00;101170.13;5112343;28;20064;-82
2023/09/29 03:52:08;;;;;;;5.47;2.45;;;;;;;16.75;100.00;101159.19;5112469;28;20411;-82
2023/09/29 03:54:34;;;;;;;5.10;2.47;;;;;;;16.74;100.00;101167.66;5095927;28;20034;-82
2023/09/29 03:57:05;;;;;;;7.07;2.45;;;;;;;16.74;100.00;101164.91;5112127;28;20031;-82
2023/09/29 03:59:33;;;;;;;3.92;2.47;;;;;;;16.73;100.00;101166.84;5113157;28;20455;-82
2023/09/29 04:01:59;;;;;;;5.13;2.43;;;;;;;16.73;100.00;101172.31;5112194;28;20035;-82
2023/09/29 04:04:24;;;;;;;4.65;2.40;;;;;;;16.71;100.00;101159.94;5095429;28;20063;-82
2023/09/29 04:06:49;;;;;;;4.87;2.40;;;;;;;16.72;100.00;101154.19;5097703;28;20070;-82
2023/09/29 04:09:15;;;;;;;4.80;2.40;;;;;;;16.72;100.00;101151.47;5117322;28;20460;-82
2023/09/29 04:11:40;;;;;;;4.97;2.73;;;;;;;16.76;100.00;101155.38;5098738;28;20035;-82
2023/09/29 04:14:06;;;;;;;4.47;2.50;;;;;;;16.77;100.00;101147.97;5115758;28;20531;-82
2023/09/29 04:16:32;;;;;;;6.32;2.47;;;;;;;16.78;100.00;101155.94;5115980;28;20072;-82
2023/09/29 04:18:57;;;;;;;4.83;2.27;;;;;;;16.80;100.00;101162.03;5115766;28;20532;-82
2023/09/29 04:21:23;;;;;;;3.27;2.33;;;;;;;16.83;100.00;101158.78;5116199;28;20455;-82
2023/09/29 04:23:48;;;;;;;3.28;2.30;;;;;;;16.86;100.00;101151.13;5115382;28;20122;-82
2023/09/29 04:26:16;;;;;;;11.00;2.50;;;;;;;16.88;100.00;101152.56;5115578;28;20027;-82
2023/09/29 04:28:41;;;;;;;5.43;2.30;;;;;;;16.88;100.00;101138.88;5115794;28;20059;-82
2023/09/29 04:31:06;;;;;;;6.23;2.80;;;;;;;16.91;100.00;101132.88;5116694;28;20118;-82
2023/09/29 04:33:32;;;;;;;4.85;2.58;;;;;;;16.92;100.00;101130.97;5115708;28;20027;-82
2023/09/29 04:35:57;;;;;;;5.00;2.60;;;;;;;16.93;100.00;101141.72;5098678;28;20054;-81
2023/09/29 04:38:22;;;;;;;5.97;2.40;;;;;;;16.96;100.00;101141.19;5098533;28;20036;-82
2023/09/29 04:40:50;;;;;;;4.23;2.43;;;;;;;16.98;100.00;101143.69;5098394;28;20081;-82
2023/09/29 04:43:16;;;;;;;4.50;2.33;;;;;;;17.00;100.00;101141.50;5098793;28;20356;-82
2023/09/29 04:45:41;;;;;;;6.67;2.40;;;;;;;17.00;100.00;101128.63;5114978;28;20544;-82
2023/09/29 04:48:10;;;;;;;3.50;2.30;;;;;;;17.02;100.00;101128.38;5115719;28;20300;-82
2023/09/29 04:50:36;;;;;;;5.88;2.55;;;;;;;17.02;100.00;101136.59;5116092;28;20039;-82
2023/09/29 04:53:03;;;;;;;6.57;2.60;;;;;;;17.04;100.00;101150.91;5115204;28;20539;-82
2023/09/29 04:55:29;;;;;;;5.68;2.28;;;;;;;17.07;100.00;101147.66;5115513;28;20361;-82
2023/09/29 04:57:54;;;;;;;5.13;2.50;;;;;;;17.09;100.00;101145.47;5115260;28;20031;-82
2023/09/29 05:00:21;;;;;;;8.67;2.80;;;;;;;17.11;100.00;101148.81;5114811;28;20043;-82
2023/09/29 05:02:46;;;;;;;3.95;2.20;;;;;;;17.12;100.00;101144.16;5115018;28;20046;-82
2023/09/29 05:05:12;;;;;;;4.93;2.40;;;;;;;17.13;100.00;101145.81;5114666;28;20399;-82
2023/09/29 05:07:43;;;;;;;5.30;2.55;;;;;;;17.14;100.00;101137.34;5098016;28;20468;-82
2023/09/29 05:10:10;;;;;;;6.47;2.60;;;;;;;17.14;100.00;101141.97;5114891;28;20036;-82
2023/09/29 05:12:37;;;;;;;5.80;2.60;;;;;;;17.14;100.00;101140.09;5116120;28;20063;-82
2023/09/29 05:15:03;;;;;;;10.35;2.65;;;;;;;17.14;100.00;101131.84;5098492;28;20135;-82
2023/09/29 05:17:29;;;;;;;4.63;2.58;;;;;;;17.15;100.00;101127.19;5113955;28;20050;-82
2023/09/29 05:19:54;;;;;;;8.70;2.60;;;;;;;17.16;100.00;101126.94;5097568;28;20418;-82
2023/09/29 05:22:21;;;;;;;4.35;2.50;;;;;;;17.18;100.00;101123.94;5097260;28;20493;-82
2023/09/29 05:24:46;;;;;;;5.20;2.50;;;;;;;17.18;100.00;101113.84;5114517;28;20031;-82
2023/09/29 05:27:12;;;;;;;4.70;2.58;;;;;;;17.18;100.00;101111.09;5116086;28;20491;-82
2023/09/29 05:29:37;;;;;;;5.27;2.50;;;;;;;17.18;100.00;101111.09;5081106;28;20038;-82
2023/09/29 05:32:03;;;;;;;7.87;2.27;;;;;;;17.21;100.00;101117.97;5114432;28;20054;-82
2023/09/29 05:34:32;;;;;;;4.28;2.40;;;;;;;17.23;100.00;101109.47;5114008;28;20527;-83
2023/09/29 05:36:57;;;;;;;5.50;2.63;;;;;;;17.25;100.00;101113.63;5097674;28;20035;-82
2023/09/29 05:39:23;;;;;;;7.40;2.37;;;;;;;17.28;100.00;101112.31;5115476;28;20024;-83
2023/09/29 05:41:48;;;;;;;4.63;2.47;;;;;;;17.30;100.00;101116.47;5097798;28;20027;-83
2023/09/29 05:44:15;;;;;;;4.57;2.30;;;;;;;17.34;100.00;101116.75;5080538;28;20140;-83
2023/09/29 05:46:43;;;;;;;4.53;2.30;;;;;;;17.36;100.00;101118.19;5114402;28;20130;-83
2023/09/29 05:49:09;;;;;;;5.97;2.28;;;;;;;17.36;100.00;101117.31;5113903;28;20024;-83
2023/09/29 05:51:36;;;;;;;4.63;2.30;;;;;;;17.44;100.00;101124.31;5097133;28;20035;-86
2023/09/29 05:54:03;;;;;;;4.53;2.42;;;;;;;17.51;100.00;101123.03;5113759;28;20032;-87
2023/09/29 05:56:31;;;;;;;5.40;2.30;;;;;;;17.58;100.00;101122.81;5113693;28;20036;-87
2023/09/29 05:58:57;;;;;;;5.70;2.38;;;;;;;17.65;100.00;101126.19;5113734;28;20492;-87
2023/09/29 06:01:25;;;;;;;7.43;2.50;;;;;;;17.71;100.00;101125.16;5113421;28;20070;-87
2023/09/29 06:03:53;;;;;;;5.07;2.10;;;;;;;17.73;100.00;101118.59;5113967;28;20036;-87
2023/09/29 06:06:18;;;;;;;7.32;2.35;;;;;;;17.77;100.00;101125.25;5113159;28;20125;-87
2023/09/29 06:08:45;;;;;;;3.90;2.30;;;;;;;17.81;100.00;101121.72;5114289;28;20062;-86
2023/09/29 06:11:13;;;;;;;4.93;2.20;;;;;;;17.84;100.00;101126.69;5113068;28;20043;-88
2023/09/29 06:13:43;;;;;;;5.55;2.20;;;;;;;17.90;100.00;101140.53;5113273;28;20035;-87
2023/09/29 06:16:11;;;;;;;6.67;2.80;;;;;;;17.95;100.00;101146.91;5097856;28;20176;-86
2023/09/29 06:18:37;;;;;;;3.88;2.22;;;;;;;18.01;100.00;101143.13;5114310;28;20039;-87
2023/09/29 06:21:03;;;;;;;6.37;2.30;;;;;;;18.06;100.00;101143.16;5113160;28;20028;-87
2023/09/29 06:23:28;;;;;;;4.50;2.30;;;;;;;18.13;100.00;101142.13;5112521;28;20141;-86
2023/09/29 06:26:00;;;;;;;4.97;2.10;;;;;;;18.17;100.00;101130.38;5095530;28;20078;-85
2023/09/29 06:28:26;;;;;;;3.47;1.95;;;;;;;18.24;100.00;101122.75;5112447;28;20036;-86
2023/09/29 06:30:53;;;;;;;5.18;2.17;;;;;;;18.31;100.00;101130.78;5114350;28;20036;-87
2023/09/29 06:33:19;;;;;;;11.82;2.58;;;;;;;18.37;100.00;101137.16;5096593;28;20031;-86
2023/09/29 06:35:45;;;;;;;7.17;2.20;;;;;;;18.43;100.00;101135.28;5113636;28;20101;-89
2023/09/29 06:38:10;;;;;;;4.60;2.40;;;;;;;18.46;100.00;101132.84;5113443;28;20023;-86
2023/09/29 06:40:38;;;;;;;6.47;2.13;;;;;;;18.52;100.00;101141.94;5095464;28;20048;-87
2023/09/29 06:43:04;;;;;;;3.75;2.20;;;;;;;18.56;100.00;101141.16;5113054;28;20049;-87
2023/09/29 06:45:31;;;;;;;4.70;1.83;;;;;;;18.62;100.00;101147.53;5095351;28;20110;-87
2023/09/29 06:47:57;;;;;;;3.30;1.58;;;;;;;18.68;100.00;101143.72;5113680;28;20028;-86
2023/09/29 06:50:24;;;;;;;5.90;2.13;;;;;;;18.72;100.00;101142.13;5112138;28;20067;-87
2023/09/29 06:52:49;;;;;;;9.27;2.10;;;;;;;18.77;100.00;101155.88;5112632;28;20074;-87
2023/09/29 06:55:15;;;;;;;4.93;1.80;;;;;;;18.78;100.00;101151.25;5113951;28;20028;-86
2023/09/29 06:57:41;;;;;;;6.18;2.00;;;;;;;18.82;100.00;101149.59;5095677;28;20034;-83
2023/09/29 07:00:08;;;;;;;3.90;1.80;;;;;;;18.85;100.00;101151.84;5113924;28;20032;-83
2023/09/29 07:02:34;;;;;;;4.30;2.00;;;;;;;18.86;100.00;101149.94;5113599;28;20432;-83
2023/09/29 07:05:00;;;;;;;6.70;1.92;;;;;;;18.87;100.00;101154.34;5096112;28;20031;-83
2023/09/29 07:07:25;;;;;;;5.93;2.17;;;;;;;18.84;100.00;101161.19;5096142;28;20503;-84
2023/09/29 07:09:50;;;;;;;3.97;2.20;;;;;;;18.85;100.00;101159.25;5095664;28;20024;-83
2023/09/29 07:12:16;;;;;;;4.80;1.90;;;;;;;18.88;100.00;101161.50;5112834;28;20506;-84
2023/09/29 07:14:42;;;;;;;4.00;2.00;;;;;;;18.92;100.00;101160.69;5113541;28;20036;-83
2023/09/29 07:17:08;;;;;;;4.13;2.33;;;;;;;18.98;100.00;101158.00;5113306;28;20036;-82
2023/09/29 07:19:34;;;;;;;4.63;2.10;;;;;;;19.00;100.00;101156.66;5078839;28;20460;-83
2023/09/29 07:22:00;;;;;;;3.45;2.10;;;;;;;19.00;100.00;101147.56;5113023;28;20034;-83
2023/09/29 07:24:26;;;;;;;4.40;2.17;;;;;;;19.01;100.00;101150.03;5096244;28;20032;-83
2023/09/29 07:26:51;;;;;;;5.63;2.10;;;;;;;19.03;100.00;101167.13;5095856;28;20032;-83
2023/09/29 07:29:17;;;;;;;5.27;2.30;;;;;;;19.09;100.00;101166.06;5112488;28;20035;-83
2023/09/29 07:31:47;;;;;;;5.45;2.15;;;;;;;19.20;100.00;101166.13;5096511;28;20039;-83
2023/09/29 07:34:15;;;;;;;5.50;2.28;;;;;;;19.32;100.00;101165.91;5112694;28;20036;-83
2023/09/29 07:36:43;;;;;;;6.23;2.20;;;;;;;19.48;100.00;101170.41;5113634;28;20028;-83
2023/09/29 07:39:09;;;;;;;3.85;1.83;;;;;;;19.66;100.00;101165.53;5113011;28;20035;-83
2023/09/29 07:41:34;;;;;;;6.22;2.47;;;;;;;19.69;100.00;101170.50;5115699;28;20436;-83
2023/09/29 07:43:59;;;;;;;5.10;2.20;;;;;;;19.72;100.00;101167.19;5118077;28;20527;-83
2023/09/29 07:46:25;;;;;;;3.40;1.80;;;;;;;19.83;100.00;101162.59;5099189;28;20531;-83
2023/09/29 07:48:50;;;;;;;7.67;2.40;;;;;;;19.93;100.00;101165.38;5099935;28;20344;-83
2023/09/29 07:51:17;;;;;;;5.20;1.90;;;;;;;20.00;100.00;101174.22;5099222;28;20075;-83
2023/09/29 07:53:43;;;;;;;5.73;2.20;;;;;;;20.02;100.00;101177.53;5099697;28;20054;-83
2023/09/29 07:56:09;;;;;;;4.68;2.28;;;;;;;20.07;100.00;101173.97;5116078;28;20031;-83
2023/09/29 07:58:35;;;;;;;6.75;2.20;;;;;;;20.07;100.00;101177.53;5116174;28;20039;-82
2023/09/29 08:01:00;;;;;;;6.70;2.77;;;;;;;20.14;100.00;101178.09;5082202;28;20489;-83
2023/09/29 08:03:26;;;;;;;6.57;2.10;;;;;;;20.15;100.00;101181.69;5098869;28;20088;-82
2023/09/29 08:05:53;;;;;;;11.30;2.40;;;;;;;20.19;100.00;101171.78;5116127;28;20280;-83
2023/09/29 08:08:21;;;;;;;5.47;2.40;;;;;;;20.21;100.00;101188.03;5099571;28;20046;-83
2023/09/29 08:10:47;;;;;;;4.27;2.13;;;;;;;20.26;100.00;101188.88;5082595;28;20088;-83
2023/09/29 08:13:13;;;;;;;4.80;2.28;;;;;;;20.30;100.00;101202.97;5099134;28;20032;-83
2023/09/29 08:15:38;;;;;;;4.83;2.60;;;;;;;20.33;100.00;101203.22;5115419;28;20043;-83
2023/09/29 08:18:03;;;;;;;5.23;1.97;;;;;;;20.37;100.00;101188.91;5115679;28;20090;-83
2023/09/29 08:20:29;;;;;;;3.58;2.10;;;;;;;20.43;100.00;101196.91;5116776;28;20028;-83
2023/09/29 08:22:54;;;;;;;5.97;2.60;;;;;;;20.42;100.00;101210.97;5098307;28;20024;-83
2023/09/29 08:25:20;;;;;;;3.70;2.10;;;;;;;20.45;100.00;101207.66;5098677;28;20043;-83
2023/09/29 08:27:45;;;;;;;2.93;2.00;;;;;;;20.54;100.00;101216.22;5098323;28;20122;-83
2023/09/29 08:30:11;;;;;;;5.30;2.37;;;;;;;20.60;100.00;101210.44;5098481;28;20042;-82
2023/09/29 08:32:38;;;;;;;6.45;2.20;;;;;;;20.63;100.00;101214.56;5115427;28;20027;-82
2023/09/29 08:35:05;;;;;;;6.65;2.38;;;;;;;20.63;100.00;101229.16;5115413;28;20035;-83
2023/09/29 08:37:30;;;;;;;4.05;2.45;;;;;;;20.73;100.00;101216.53;5116581;28;20033;-83
2023/09/29 08:39:56;;;;;;;6.33;2.30;;;;;;;20.80;100.00;101234.47;5098775;28;20456;-82
2023/09/29 08:42:37;;;;;;;4.53;2.67;;;;;;;20.84;100.00;101231.97;5115353;28;20069;-83
2023/09/29 08:45:09;;;;;;;7.45;2.47;;;;;;;20.87;100.00;101242.44;5114736;28;20028;-83
2023/09/29 08:47:36;;;;;;;6.22;2.30;;;;;;;20.91;100.00;101237.22;5117069;28;20479;-83
2023/09/29 08:50:06;;;;;;;5.60;2.50;;;;;;;20.96;100.00;101229.75;5115146;28;20044;-83
2023/09/29 08:52:35;;;;;;;7.60;2.92;;;;;;;21.03;100.00;101241.34;5097956;28;20038;-83
2023/09/29 08:55:02;;;;;;;6.37;2.40;;;;;;;21.13;100.00;101251.56;5116097;28;20039;-83
2023/09/29 08:57:30;;;;;;;6.00;2.80;;;;;;;21.22;99.78;101251.00;5116803;28;20452;-83
2023/09/29 08:59:58;;;;;;;7.07;2.50;;;;;;;21.35;100.00;101237.47;5114988;28;20035;-83
2023/09/29 09:02:26;;;;;;;7.53;2.63;;;;;;;21.46;98.63;101245.72;5098075;28;20042;-83
2023/09/29 09:04:52;;;;;;;7.00;2.35;;;;;;;21.53;98.04;101238.81;5114587;28;20036;-83
2023/09/29 09:07:19;;;;;;;7.40;2.80;;;;;;;21.49;97.76;101240.47;5114824;28;20031;-83
2023/09/29 09:09:59;;;;;;;7.35;2.63;;;;;;;21.38;98.42;101247.13;5114778;28;20031;-83
2023/09/29 09:12:35;;;;;;;8.63;2.97;;;;;;;21.30;98.97;101247.69;5115307;28;20024;-83
2023/09/29 09:15:03;;;;;;;7.20;2.70;;;;;;;21.33;98.02;101266.44;5114837;28;20054;-83
2023/09/29 09:17:33;;;;;;;9.02;2.85;;;;;;;21.28;98.86;101259.00;5114557;28;20020;-83
2023/09/29 09:19:58;;;;;;;6.63;2.30;;;;;;;21.17;99.38;101241.63;5114864;28;20039;-83
2023/09/29 09:22:26;;;;;;;6.72;2.60;;;;;;;21.05;100.00;101260.38;5115601;28;20031;-83
2023/09/29 09:25:04;;;;;;;6.43;2.40;;;;;;;20.83;100.00;101258.75;5114383;28;20036;-83
2023/09/29 09:27:40;;;;;;;7.32;2.30;;;;;;;20.78;100.00;101263.41;5115234;28;20081;-83
2023/09/29 09:30:06;;;;;;;4.35;2.20;;;;;;;20.98;100.00;101263.44;5098138;28;20031;-84
2023/09/29 09:32:32;;;;;;;6.95;2.55;;;;;;;21.19;100.00;101271.69;5097329;28;20115;-83
2023/09/29 09:34:58;;;;;;;7.90;2.60;;;;;;;21.25;100.00;101269.78;5114575;28;20055;-82
2023/09/29 09:37:26;;;;;;;6.28;2.50;;;;;;;21.27;100.00;101271.13;5115561;28;20038;-83
2023/09/29 09:39:56;;;;;;;4.43;2.50;;;;;;;21.25;100.00;101287.16;5114204;28;20395;-83
2023/09/29 09:42:27;;;;;;;7.15;2.45;;;;;;;21.23;100.00;101272.81;5115101;28;20024;-83
2023/09/29 09:44:59;;;;;;;5.80;2.55;;;;;;;21.10;100.00;101278.88;5097831;28;20035;-83
2023/09/29 09:47:31;;;;;;;4.73;2.40;;;;;;;20.99;100.00;101278.88;5115737;28;20062;-83
2023/09/29 09:49:57;;;;;;;5.70;2.30;;;;;;;20.93;100.00;101279.13;5115398;28;20050;-83
2023/09/29 09:52:30;;;;;;;6.93;2.35;;;;;;;20.90;100.00;101293.47;5096781;28;20031;-83
2023/09/29 09:54:58;;;;;;;5.45;2.35;;;;;;;20.88;100.00;101292.94;5114829;28;20045;-83
2023/09/29 09:57:41;;;;;;;6.43;2.60;;;;;;;20.93;100.00;101299.25;5113876;28;20024;-83
2023/09/29 10:00:10;;;;;;;4.53;2.33;;;;;;;20.95;100.00;101299.00;5114162;28;20368;-83
2023/09/29 10:02:51;;;;;;;9.43;2.80;;;;;;;20.96;100.00;101304.22;5114413;28;20353;-82
2023/09/29 10:05:30;;;;;;;6.82;2.30;;;;;;;21.00;100.00;101316.38;5113028;28;20034;-83
2023/09/29 10:08:02;;;;;;;4.65;2.42;;;;;;;20.93;100.00;101313.06;5098322;28;20032;-83
2023/09/29 10:10:41;;;;;;;5.93;2.53;;;;;;;20.82;100.00;101312.22;5115222;28;20027;-82
2023/09/29 10:13:11;;;;;;;6.17;2.37;;;;;;;20.87;100.00;101305.06;5113648;28;20493;-83
2023/09/29 10:15:40;;;;;;;5.80;2.47;;;;;;;20.90;100.00;101323.81;5115280;28;20106;-83
2023/09/29 10:18:20;;;;;;;7.88;2.80;;;;;;;20.92;100.00;101314.19;5097285;28;20035;-83
2023/09/29 10:20:51;;;;;;;7.50;2.83;;;;;;;20.94;100.00;101313.91;5114477;28;20031;-83
2023/09/29 10:23:16;;;;;;;4.47;2.70;;;;;;;20.91;100.00;101311.69;5113203;28;20038;-83
2023/09/29 10:25:54;;;;;;;4.50;2.47;;;;;;;20.93;100.00;101307.53;5096387;28;20032;-83
2023/09/29 10:28:41;;;;;;;5.38;2.30;;;;;;;20.96;100.00;101309.75;5113268;28;20036;-83
2023/09/29 10:31:30;;;;;;;6.70;2.78;;;;;;;20.94;100.00;101313.91;5113327;28;20471;-84
2023/09/29 10:33:56;;;;;;;8.13;2.77;;;;;;;20.93;100.00;101313.06;5113596;28;20492;-82
2023/09/29 10:36:23;;;;;;;6.07;2.63;;;;;;;20.91;100.00;101331.00;5096272;28;20028;-83
2023/09/29 10:38:49;;;;;;;4.15;2.63;;;;;;;20.88;100.00;101326.03;5113878;28;20482;-83
2023/09/29 10:41:15;;;;;;;7.75;2.40;;;;;;;21.00;100.00;101321.06;5095825;28;20119;-83
2023/09/29 10:43:51;;;;;;;7.57;2.47;;;;;;;21.01;100.00;101331.84;5115073;28;20505;-83
2023/09/29 10:46:18;;;;;;;6.93;2.27;;;;;;;20.92;100.00;101324.38;5098003;28;20039;-82
2023/09/29 10:48:48;;;;;;;3.55;1.67;;;;;;;20.88;100.00;101326.03;5113966;28;20394;-83
2023/09/29 10:51:31;;;;;;;7.10;2.50;;;;;;;20.90;100.00;101332.09;5112246;28;20487;-82
2023/09/29 10:54:02;;;;;;;6.25;2.20;;;;;;;20.92;100.00;101338.16;5113159;28;20035;-82
2023/09/29 10:56:28;;;;;;;5.93;2.25;;;;;;;20.90;100.00;101337.59;5112970;28;20023;-83
2023/09/29 10:58:55;;;;;;;5.93;2.30;;;;;;;20.77;100.00;101341.72;5112899;28;20363;-83
2023/09/29 11:01:33;;;;;;;5.65;2.00;;;;;;;20.78;100.00;101354.41;5114700;28;20024;-82
2023/09/29 11:04:00;;;;;;;4.93;2.25;;;;;;;21.22;100.00;101353.94;5113357;28;20363;-83
2023/09/29 11:06:26;;;;;;;4.20;2.45;;;;;;;22.08;99.54;101352.19;5112804;28;20035;-83
2023/09/29 11:08:59;;;;;;;4.50;2.05;;;;;;;22.51;95.40;101345.44;5112817;28;20051;-83
2023/09/29 11:11:26;;;;;;;4.60;2.13;;;;;;;22.39;94.60;101354.88;5113543;28;20034;-82
2023/09/29 11:13:56;;;;;;;5.07;2.20;;;;;;;22.36;95.24;101352.69;5095989;28;20028;-83
2023/09/29 11:16:24;;;;;;;4.97;2.10;;;;;;;22.16;94.97;101361.00;5098913;28;20463;-82
2023/09/29 11:18:51;;;;;;;6.82;2.08;;;;;;;21.96;96.38;101359.16;5117064;28;20238;-83